Time;durP1;ratioP1;P1;durP2;ratioP2;P2;SDS_P1;SDS_P2;PMS_P1;PMS_P2;Temp;Humidity;BMP_temperature;BMP_pressure;BME280_temperature;BME280_humidity;BME280_pressure;Samples;Min_cycle;Max_cycle;Signal;HPM_P1;HPM_P2
2022/10/05 00:00:56;;;;;;;33.95;17.58;;;18.40;96.80;;;18.52;70.42;99552.22;5091477;28;20093;-74
2022/10/05 00:03:35;;;;;;;28.45;16.08;;;18.40;96.70;;;18.49;70.26;99547.31;5089837;28;20036;-74
2022/10/05 00:06:01;;;;;;;33.58;17.15;;;18.40;96.70;;;18.52;71.02;99548.63;5091877;28;20050;-74
2022/10/05 00:08:32;;;;;;;30.30;17.10;;;18.50;96.90;;;18.56;71.05;99544.97;5070107;28;20039;-74
2022/10/05 00:10:58;;;;;;;36.38;17.95;;;18.50;96.90;;;18.56;70.63;99538.66;5086016;28;20056;-74
2022/10/05 00:13:29;;;;;;;38.88;19.05;;;18.50;96.90;;;18.50;70.54;99534.41;5084385;28;20040;-74
2022/10/05 00:16:18;;;;;;;28.17;17.73;;;18.40;96.70;;;18.51;70.43;99533.28;5088412;28;20036;-74
2022/10/05 00:18:51;;;;;;;29.40;15.82;;;18.30;96.80;;;18.54;70.28;99543.63;5089348;28;20079;-74
2022/10/05 00:21:23;;;;;;;36.47;17.95;;;18.40;96.80;;;18.54;70.31;99538.16;5092085;28;20151;-74
2022/10/05 00:23:50;;;;;;;32.38;17.45;;;18.50;96.90;;;18.51;70.68;99534.09;5073289;28;20052;-74
2022/10/05 00:26:22;;;;;;;32.22;16.70;;;18.40;96.80;;;18.53;70.62;99537.34;5107863;28;20044;-74
2022/10/05 00:28:48;;;;;;;35.05;18.27;;;18.50;96.90;;;18.52;70.16;99540.38;5073210;28;20535;-74
2022/10/05 00:31:18;;;;;;;34.63;15.73;;;18.40;96.70;;;18.45;70.51;99535.31;5093792;28;20039;-74
2022/10/05 00:33:45;;;;;;;29.65;14.25;;;18.30;96.70;;;18.49;69.92;99539.06;5107586;28;20040;-74
2022/10/05 00:36:13;;;;;;;29.17;15.18;;;18.40;96.80;;;18.47;70.26;99541.31;5101036;28;20038;-74
2022/10/05 00:38:40;;;;;;;30.83;16.13;;;18.40;96.70;;;18.49;70.70;99541.81;5102831;28;20379;-74
2022/10/05 00:41:21;;;;;;;37.00;17.02;;;18.40;96.90;;;18.51;70.73;99534.09;5100263;28;20059;-74
2022/10/05 00:44:02;;;;;;;;;;;18.40;96.80;;;18.43;69.88;99532.88;5107430;28;20050;-74
2022/10/05 00:46:39;;;;;;;30.30;16.08;;;18.40;96.70;;;18.45;70.38;99524.34;5102953;28;19920;-74
2022/10/05 00:49:25;;;;;;;29.50;15.35;;;18.40;96.70;;;18.47;70.07;99529.50;5101896;28;20046;-74
2022/10/05 00:52:22;;;;;;;27.88;16.25;;;18.40;96.70;;;18.44;70.10;99529.03;5087253;28;20040;-74
2022/10/05 00:55:16;;;;;;;29.58;15.82;;;18.40;96.70;;;18.47;70.63;99538.59;5101751;28;20040;-74
2022/10/05 00:57:59;;;;;;;33.38;16.90;;;18.40;96.80;;;18.48;70.69;99533.91;5102608;28;20048;-74
2022/10/05 01:00:25;;;;;;;23.65;13.77;;;18.40;96.80;;;18.43;69.94;99537.56;5106093;28;20352;-74
2022/10/05 01:03:09;;;;;;;25.95;14.77;;;18.40;96.60;;;18.44;69.98;99533.69;5103460;28;20066;-74
2022/10/05 01:06:03;;;;;;;31.98;15.80;;;18.40;96.60;;;18.43;69.50;99527.38;5076154;28;20046;-74
2022/10/05 01:08:47;;;;;;;29.67;15.38;;;18.40;96.60;;;18.42;70.26;99519.47;5072189;28;20036;-74
2022/10/05 01:11:27;;;;;;;31.10;15.55;;;18.30;96.60;;;18.47;70.18;99516.59;5101942;28;20122;-74
2022/10/05 01:14:06;;;;;;;30.35;15.15;;;18.40;96.80;;;18.44;70.49;99509.78;5100574;28;20044;-74
2022/10/05 01:16:58;;;;;;;27.55;14.32;;;18.30;96.80;;;18.43;69.83;99515.59;5102531;28;20053;-74
2022/10/05 01:19:42;;;;;;;27.95;14.52;;;18.30;96.60;;;18.40;69.33;99525.25;5071896;28;20478;-74
2022/10/05 01:22:26;;;;;;;29.75;14.40;;;18.30;96.60;;;18.43;69.74;99516.41;5104194;28;20050;-74
2022/10/05 01:25:48;;;;;;;23.80;14.13;;;18.30;96.60;;;18.42;70.02;99517.53;5105711;28;20098;-74
2022/10/05 01:28:43;;;;;;;30.13;14.98;;;18.40;96.70;;;18.43;70.11;99516.41;5060723;28;20066;-74
2022/10/05 01:31:40;;;;;;;27.17;15.85;;;18.40;97.00;;;18.43;69.97;99516.41;5037959;28;20044;-74
2022/10/05 01:34:09;;;;;;;30.17;14.40;;;18.40;96.60;;;18.41;69.71;99515.88;5022379;28;20052;-74
2022/10/05 01:37:03;;;;;;;30.77;15.45;;;18.30;96.60;;;18.43;69.68;99521.88;5060877;28;20083;-74
2022/10/05 01:39:56;;;;;;;23.88;13.52;;;18.40;96.60;;;18.40;69.68;99521.69;5049260;28;20051;-74
2022/10/05 01:42:44;;;;;;;24.27;12.90;;;18.30;96.50;;;18.44;69.88;99512.53;5060844;28;20072;-74
2022/10/05 01:46:10;;;;;;;27.23;14.60;;;18.40;96.70;;;18.46;70.05;99509.47;5060988;28;20040;-74
2022/10/05 01:49:13;;;;;;;23.52;13.88;;;18.40;96.70;;;18.47;69.36;99507.53;5029648;28;20079;-74
2022/10/05 01:52:03;;;;;;;25.33;14.88;;;18.40;96.50;;;18.51;69.15;99500.31;5058255;28;20053;-74
2022/10/05 01:54:50;;;;;;;21.98;12.38;;;18.40;96.50;;;18.48;68.93;99500.94;5048242;28;20810;-74
2022/10/05 01:57:39;;;;;;;23.23;12.77;;;18.40;96.40;;;18.51;69.10;99508.53;5049614;28;20045;-74
2022/10/05 02:00:11;;;;;;;24.90;13.95;;;18.40;96.50;;;18.54;69.23;99513.41;5103879;28;20060;-74
2022/10/05 02:02:59;;;;;;;24.40;13.98;;;18.30;96.60;;;18.57;69.13;99516.38;5065645;28;20052;-74
2022/10/05 02:05:37;;;;;;;23.73;11.88;;;18.40;96.50;;;18.54;68.94;99521.66;5103435;28;20494;-74
2022/10/05 02:08:07;;;;;;;20.63;13.05;;;18.40;96.50;;;18.56;68.68;99527.66;5098148;28;20036;-74
2022/10/05 02:11:01;;;;;;;19.77;12.77;;;18.40;96.40;;;18.59;68.50;99529.78;5082001;28;20070;-75
2022/10/05 02:13:43;;;;;;;24.30;11.77;;;18.40;96.50;;;18.67;68.66;99534.53;5085084;28;20114;-74
2022/10/05 02:16:24;;;;;;;27.25;13.02;;;18.50;96.50;;;18.65;68.53;99525.81;5083649;28;20101;-74
2022/10/05 02:18:56;;;;;;;17.60;12.13;;;18.50;96.60;;;18.68;68.60;99518.91;5088738;28;20049;-74
2022/10/05 02:21:23;;;;;;;20.20;12.00;;;18.50;96.60;;;18.68;68.38;99511.47;5067882;28;20084;-75
2022/10/05 02:23:51;;;;;;;25.38;11.63;;;18.50;96.50;;;18.69;68.16;99507.56;5068070;28;20051;-74
2022/10/05 02:26:17;;;;;;;24.00;11.70;;;18.50;96.50;;;18.72;67.89;99506.94;5066632;28;20123;-74
2022/10/05 02:28:50;;;;;;;21.48;12.38;;;18.50;96.40;;;18.75;67.71;99506.38;5099986;28;20052;-74
2022/10/05 02:31:29;;;;;;;18.90;12.18;;;18.50;96.50;;;18.77;68.03;99519.78;5093843;28;20082;-74
2022/10/05 02:34:26;;;;;;;22.10;13.00;;;18.60;96.50;;;18.79;68.08;99498.31;5069446;28;20181;-74
2022/10/05 02:37:20;;;;;;;20.38;12.18;;;18.50;96.50;;;18.75;67.92;99484.41;5098971;28;20047;-74
2022/10/05 02:40:33;;;;;;;22.08;11.95;;;18.60;96.40;;;18.80;67.84;99494.44;5084933;28;20044;-74
2022/10/05 02:43:39;;;;;;;20.48;11.68;;;18.60;96.40;;;18.79;67.72;99485.38;5104787;28;20146;-74
2022/10/05 02:46:45;;;;;;;20.02;11.90;;;18.60;96.40;;;18.89;67.41;99480.78;5099247;28;20451;-74
2022/10/05 02:49:31;;;;;;;19.52;10.85;;;18.60;96.50;;;18.92;67.37;99489.19;5085253;28;20065;-74
2022/10/05 02:52:28;;;;;;;18.55;10.98;;;18.70;96.50;;;18.92;67.35;99489.19;5086036;28;20051;-74
2022/10/05 02:55:30;;;;;;;16.90;10.25;;;18.70;96.40;;;18.91;67.26;99487.59;5086682;28;20601;-74
2022/10/05 02:58:07;;;;;;;;;;;18.70;96.40;;;18.94;67.20;99486.94;5086433;28;20801;-74
2022/10/05 03:00:59;;;;;;;18.20;10.02;;;18.70;96.40;;;18.98;66.83;99476.13;5086145;28;19923;-74
2022/10/05 03:03:34;;;;;;;18.25;11.30;;;18.70;96.50;;;19.05;66.78;99471.00;5073890;28;20052;-74
2022/10/05 03:06:02;;;;;;;14.73;9.70;;;18.80;96.50;;;19.02;67.55;99477.94;5097410;28;20737;-74
2022/10/05 03:08:46;;;;;;;17.75;10.68;;;18.80;96.50;;;19.01;67.21;99490.06;5070394;28;20040;-74
2022/10/05 03:11:50;;;;;;;17.02;9.82;;;18.80;96.40;;;19.06;66.93;99494.66;5101981;28;20440;-74
2022/10/05 03:14:45;;;;;;;17.73;9.82;;;18.70;96.50;;;19.05;66.85;99482.00;5098054;28;20051;-75
2022/10/05 03:17:19;;;;;;;14.90;10.20;;;18.80;96.40;;;19.08;66.51;99482.22;5090927;28;20438;-74
2022/10/05 03:20:23;;;;;;;16.15;10.43;;;18.80;96.50;;;19.12;66.88;99471.38;5078554;28;20040;-74
2022/10/05 03:22:59;;;;;;;19.73;11.13;;;18.80;96.50;;;19.12;67.12;99481.56;5098481;28;20054;-74
2022/10/05 03:25:50;;;;;;;17.40;9.73;;;18.80;96.50;;;19.15;66.62;99487.25;5088556;28;20071;-74
2022/10/05 03:28:48;;;;;;;14.55;9.13;;;18.80;96.50;;;19.13;66.68;99500.50;5104088;28;20042;-75
2022/10/05 03:31:41;;;;;;;17.55;9.25;;;18.80;96.40;;;19.14;66.69;99504.88;5088344;28;20088;-74
2022/10/05 03:34:22;;;;;;;15.52;9.60;;;18.80;96.40;;;19.12;66.92;99518.13;5072368;28;20044;-74
2022/10/05 03:37:21;;;;;;;15.82;10.13;;;18.80;96.50;;;19.15;67.15;99524.94;5099977;28;20204;-74
2022/10/05 03:40:26;;;;;;;14.73;9.18;;;18.80;96.60;;;19.14;66.74;99524.13;5087575;28;20052;-74
2022/10/05 03:43:19;;;;;;;18.38;9.65;;;18.80;96.50;;;19.16;66.88;99518.31;5082166;28;20052;-74
2022/10/05 03:45:53;;;;;;;16.58;9.98;;;18.80;96.60;;;19.17;66.68;99518.00;5100990;28;20399;-74
2022/10/05 03:48:36;;;;;;;15.38;9.20;;;18.80;96.50;;;19.16;66.76;99519.13;5102917;28;20042;-74
2022/10/05 03:51:33;;;;;;;18.00;10.50;;;18.90;96.50;;;19.22;66.64;99517.06;5068704;28;20043;-74
2022/10/05 03:54:15;;;;;;;15.38;9.45;;;18.90;96.50;;;19.18;66.52;99532.56;5083367;28;20082;-74
2022/10/05 03:57:13;;;;;;;12.63;8.65;;;18.90;96.30;;;19.16;66.50;99524.63;5092051;28;20220;-74
2022/10/05 04:00:03;;;;;;;14.40;9.27;;;18.90;96.30;;;19.22;65.86;99515.13;5088897;28;20048;-74
2022/10/05 04:02:53;;;;;;;13.25;9.25;;;18.90;96.30;;;19.24;65.61;99504.63;5087536;28;20059;-74
2022/10/05 04:05:23;;;;;;;13.98;9.15;;;18.90;96.30;;;19.17;66.10;99508.94;5105518;28;20067;-74
2022/10/05 04:08:30;;;;;;;14.80;8.85;;;18.90;96.30;;;19.22;65.94;99497.81;5073299;28;21125;-74
2022/10/05 04:11:00;;;;;;;14.48;9.55;;;18.90;96.40;;;19.18;65.41;99485.81;5103338;28;20057;-74
2022/10/05 04:13:48;;;;;;;13.02;8.73;;;18.90;96.20;;;19.21;65.42;99471.41;5071403;28;20106;-74
2022/10/05 04:16:31;;;;;;;13.27;9.65;;;18.90;96.10;;;19.20;65.18;99465.13;5092484;28;20027;-74
2022/10/05 04:19:24;;;;;;;14.88;8.40;;;18.90;96.10;;;19.16;65.19;99461.38;5077556;28;20051;-74
2022/10/05 04:22:02;;;;;;;10.75;8.15;;;18.90;96.20;;;19.19;65.61;99462.69;5076373;28;20096;-74
2022/10/05 04:25:15;;;;;;;14.35;8.70;;;18.90;96.30;;;19.21;65.19;99458.50;5102989;28;20036;-74
2022/10/05 04:27:50;;;;;;;11.02;8.02;;;18.90;96.30;;;19.20;65.00;99456.06;5098261;28;20043;-74
2022/10/05 04:30:21;;;;;;;13.15;8.32;;;18.90;96.20;;;19.20;64.74;99462.38;5082233;28;20047;-74
2022/10/05 04:32:56;;;;;;;11.43;8.45;;;18.90;96.00;;;19.21;64.46;99455.75;5066363;28;20062;-74
2022/10/05 04:35:55;;;;;;;13.13;8.55;;;18.90;96.00;;;19.20;64.81;99456.06;5096183;28;20495;-74
2022/10/05 04:38:30;;;;;;;11.05;7.45;;;18.90;96.00;;;19.25;64.69;99461.44;5099720;28;20043;-74
2022/10/05 04:41:39;;;;;;;14.48;9.07;;;18.90;96.10;;;19.22;64.49;99453.81;5100629;28;20048;-74
2022/10/05 04:44:38;;;;;;;12.07;8.55;;;18.90;96.00;;;19.22;64.21;99459.31;5097343;28;20059;-74
2022/10/05 04:47:26;;;;;;;13.52;7.45;;;19.00;95.90;;;19.20;64.19;99467.06;5098750;28;20482;-74
2022/10/05 04:50:17;;;;;;;12.65;7.85;;;18.90;95.80;;;19.20;64.19;99473.38;5112583;27;20093;-74
2022/10/05 04:53:08;;;;;;;13.85;8.88;;;18.90;95.80;;;19.21;64.10;99471.41;5085550;28;20125;-74
2022/10/05 04:56:11;;;;;;;12.57;8.43;;;18.90;95.90;;;19.26;64.04;99463.06;5095629;28;20050;-74
2022/10/05 04:58:51;;;;;;;14.40;8.43;;;18.90;95.90;;;19.23;64.00;99456.25;5083224;28;20043;-73
2022/10/05 05:01:48;;;;;;;9.23;7.22;;;18.90;95.80;;;19.21;63.68;99446.66;5098071;28;20062;-73
2022/10/05 05:04:44;;;;;;;13.73;7.88;;;18.90;95.80;;;19.23;63.51;99456.25;5097479;28;20042;-73
2022/10/05 05:07:38;;;;;;;12.60;7.78;;;18.90;95.70;;;19.24;63.19;99463.38;5095656;28;20509;-73
2022/10/05 05:10:51;;;;;;;10.52;7.40;;;18.90;95.70;;;19.24;63.49;99471.63;5097306;28;20101;-74
2022/10/05 05:13:41;;;;;;;17.48;7.82;;;19.00;95.80;;;19.26;63.28;99480.38;5097606;28;20055;-74
2022/10/05 05:16:30;;;;;;;15.45;9.18;;;19.00;95.80;;;19.23;63.13;99478.25;5095853;28;20576;-74
2022/10/05 05:19:26;;;;;;;10.05;7.78;;;19.00;95.60;;;19.24;63.23;99479.88;5071848;28;20479;-74
2022/10/05 05:22:28;;;;;;;17.48;9.52;;;19.00;95.60;;;19.27;62.70;99489.44;5087819;28;20159;-74
2022/10/05 05:25:14;;;;;;;10.98;7.45;;;19.00;95.50;;;19.26;62.91;99483.13;5097281;27;20052;-74
2022/10/05 05:27:46;;;;;;;13.68;7.07;;;19.00;95.60;;;19.32;62.82;99469.25;5096050;28;20094;-74
2022/10/05 05:30:23;;;;;;;10.10;7.13;;;19.00;95.70;;;19.27;62.78;99468.25;5080110;28;20044;-74
2022/10/05 05:33:20;;;;;;;8.32;7.40;;;19.00;95.50;;;19.24;62.14;99485.38;5085441;28;20051;-74
2022/10/05 05:36:08;;;;;;;11.38;8.00;;;19.00;95.50;;;19.30;61.99;99477.78;5100856;28;20490;-73
2022/10/05 05:39:23;;;;;;;12.50;7.53;;;19.00;95.40;;;19.31;62.02;99490.44;5097332;28;20153;-73
2022/10/05 05:41:59;;;;;;;10.80;6.97;;;19.00;95.40;;;19.37;61.76;99482.88;5084937;28;20142;-73
2022/10/05 05:44:55;;;;;;;10.70;6.85;;;19.00;95.40;;;19.34;62.23;99469.75;5084243;28;20040;-73
2022/10/05 05:47:36;;;;;;;10.75;7.05;;;19.10;95.50;;;19.35;61.60;99465.84;5085133;28;20557;-73
2022/10/05 05:50:20;;;;;;;9.50;7.07;;;19.10;95.40;;;19.36;61.50;99459.22;5084653;28;20040;-73
2022/10/05 05:53:01;;;;;;;10.93;7.05;;;19.00;95.30;;;19.33;61.35;99463.41;5098465;28;20045;-73
2022/10/05 05:55:35;;;;;;;8.65;6.22;;;19.00;95.30;;;19.35;61.53;99452.09;5099872;28;20040;-73
2022/10/05 05:58:37;;;;;;;9.70;7.30;;;19.00;95.30;;;19.38;61.00;99449.50;5061755;28;20422;-73
2022/10/05 06:01:22;;;;;;;;;;;19.10;95.30;;;19.39;61.01;99459.41;5094610;28;20120;-73
2022/10/05 06:04:02;;;;;;;9.40;6.38;;;19.10;95.20;;;19.42;61.15;99469.78;5099499;28;19924;-73
2022/10/05 06:06:34;;;;;;;11.38;7.35;;;19.10;95.30;;;19.42;61.44;99474.47;5070263;28;20035;-75
2022/10/05 06:09:22;;;;;;;9.55;7.10;;;19.00;95.40;;;19.41;61.13;99476.41;5069927;28;20039;-75
2022/10/05 06:11:55;;;;;;;9.35;6.47;;;19.10;95.40;;;19.40;61.07;99488.53;5071044;28;20043;-74
2022/10/05 06:14:36;;;;;;;9.90;7.18;;;19.10;95.30;;;19.41;61.04;99490.19;5084487;28;20039;-74
2022/10/05 06:17:32;;;;;;;11.15;6.78;;;19.10;95.20;;;19.44;60.87;99495.03;5070075;28;20040;-74
2022/10/05 06:19:58;;;;;;;12.07;8.40;;;19.20;95.30;;;19.46;61.33;99495.53;5103688;28;20575;-74
2022/10/05 06:22:40;;;;;;;8.50;5.95;;;19.20;95.30;;;19.45;61.18;99513.16;5062107;28;20055;-74
2022/10/05 06:25:12;;;;;;;10.27;7.28;;;19.20;95.30;;;19.43;61.46;99509.91;5060177;28;20063;-74
2022/10/05 06:28:10;;;;;;;11.15;7.93;;;19.10;95.40;;;19.48;61.18;99500.72;5096267;28;20129;-75
2022/10/05 06:31:18;;;;;;;13.00;7.80;;;19.10;95.40;;;19.53;60.80;99495.06;5083668;28;20043;-75
2022/10/05 06:33:52;;;;;;;13.65;8.40;;;19.20;95.40;;;19.56;60.70;99501.88;5094951;28;20075;-75
2022/10/05 06:36:56;;;;;;;19.52;7.40;;;19.20;95.30;;;19.55;60.88;99505.78;5069202;28;20064;-75
2022/10/05 06:39:53;;;;;;;25.15;10.48;;;19.20;95.30;;;19.51;60.95;99500.91;5084840;28;20043;-75
2022/10/05 06:42:40;;;;;;;16.30;8.50;;;19.20;95.40;;;19.50;61.07;99492.97;5097813;28;20048;-74
2022/10/05 06:45:34;;;;;;;22.02;10.32;;;19.20;95.30;;;19.55;60.81;99495.56;5095484;28;20372;-74
2022/10/05 06:48:40;;;;;;;16.77;8.73;;;19.20;95.30;;;19.54;60.48;99482.97;5083872;28;20061;-74
2022/10/05 06:51:45;;;;;;;20.13;9.45;;;19.20;95.20;;;19.59;60.26;99480.06;5097926;28;20047;-74
2022/10/05 06:54:59;;;;;;;15.55;9.45;;;19.20;95.20;;;19.62;60.50;99486.88;5095113;28;20043;-74
2022/10/05 06:57:43;;;;;;;21.05;9.85;;;19.30;95.30;;;19.63;60.33;99499.50;5077777;28;20736;-74
2022/10/05 07:00:23;;;;;;;20.38;10.52;;;19.30;95.20;;;19.65;59.95;99505.50;5086944;28;20099;-74
2022/10/05 07:03:04;;;;;;;19.17;10.93;;;19.30;95.20;;;19.64;60.13;99501.09;5085321;28;20056;-74
2022/10/05 07:06:14;;;;;;;14.40;9.23;;;19.30;95.10;;;19.68;59.99;99510.41;5066656;28;20122;-74
2022/10/05 07:09:29;;;;;;;17.67;9.73;;;19.30;95.10;;;19.70;59.86;99508.16;5095450;28;20032;-74
2022/10/05 07:12:36;;;;;;;20.35;11.10;;;19.30;95.10;;;19.68;59.88;99502.94;5097759;28;20166;-75
2022/10/05 07:15:23;;;;;;;19.08;10.27;;;19.40;95.10;;;19.68;59.79;99500.19;5113555;28;20089;-74
2022/10/05 07:19:09;;;;;;;20.75;10.75;;;19.40;95.00;;;19.68;59.60;99497.44;5097468;28;20482;-74
2022/10/05 07:21:48;;;;;;;18.80;10.48;;;19.40;95.00;;;19.69;59.61;99484.47;5048743;28;20048;-74
2022/10/05 07:24:41;;;;;;;21.60;10.98;;;19.40;94.80;;;19.71;59.56;99490.50;5076655;28;20058;-74
2022/10/05 07:27:22;;;;;;;21.17;10.38;;;19.40;95.00;;;19.76;59.72;99492.28;5099334;28;20518;-74
2022/10/05 07:30:10;;;;;;;30.55;11.68;;;19.40;95.00;;;19.75;59.71;99488.75;5081511;28;20415;-74
2022/10/05 07:33:01;;;;;;;26.13;13.05;;;19.40;94.80;;;19.75;59.56;99499.75;5069786;28;20044;-74
2022/10/05 07:38:47;;;;;;;26.20;10.77;;;19.50;94.90;;;19.79;59.08;99494.41;5104085;28;20384;-74
2022/10/05 07:41:25;;;;;;;25.25;11.27;;;19.50;95.20;;;19.79;59.21;99486.16;5081961;28;20986;-74
2022/10/05 07:44:05;;;;;;;22.00;12.40;;;19.50;94.90;;;19.79;59.25;99475.13;5090966;28;20119;-74
2022/10/05 07:46:53;;;;;;;24.13;10.82;;;19.50;94.90;;;19.81;59.29;99470.94;5090695;28;20042;-74
2022/10/05 07:49:50;;;;;;;19.95;10.52;;;19.50;94.90;;;19.82;59.24;99482.75;5107494;27;20043;-74
2022/10/05 07:52:23;;;;;;;24.55;12.15;;;19.50;94.90;;;19.82;59.23;99491.00;5078309;28;20040;-74
2022/10/05 07:55:22;;;;;;;20.23;11.52;;;19.60;94.90;;;19.82;59.18;99474.50;5072493;28;20044;-75
2022/10/05 07:58:10;;;;;;;20.15;10.02;;;19.60;94.90;;;19.83;59.22;99490.69;5096524;28;20044;-75
2022/10/05 08:00:42;;;;;;;21.77;10.65;;;19.60;94.90;;;19.87;59.14;99490.88;5100496;28;20745;-75
2022/10/05 08:03:36;;;;;;;23.58;11.60;;;19.60;94.90;;;19.89;58.76;99483.91;5102759;27;20066;-75
2022/10/05 08:06:02;;;;;;;27.25;13.00;;;19.60;94.90;;;19.89;58.65;99475.66;5086183;28;20125;-75
2022/10/05 08:09:08;;;;;;;20.80;9.55;;;19.60;94.80;;;19.90;58.64;99479.25;5068272;28;20048;-75
2022/10/05 08:12:03;;;;;;;23.50;11.77;;;19.60;94.70;;;19.93;58.56;99489.59;5089974;28;20126;-75
2022/10/05 08:14:41;;;;;;;26.98;10.98;;;19.70;94.70;;;19.97;58.75;99489.78;5099237;28;20126;-75
2022/10/05 08:17:28;;;;;;;20.98;12.27;;;19.70;94.70;;;20.01;58.50;99468.75;5101328;28;20765;-75
2022/10/05 08:20:09;;;;;;;22.77;11.00;;;19.70;94.70;;;20.02;58.34;99468.41;5070124;28;20114;-75
2022/10/05 08:22:44;;;;;;;23.90;11.50;;;19.70;94.60;;;20.03;58.28;99474.75;5100694;28;20046;-75
2022/10/05 08:26:00;;;;;;;22.00;10.98;;;19.80;94.70;;;20.04;58.16;99476.34;5087190;28;20428;-75
2022/10/05 08:28:34;;;;;;;22.50;9.68;;;19.80;94.60;;;20.09;58.08;99481.72;5098981;28;20036;-75
2022/10/05 08:31:06;;;;;;;19.05;9.52;;;19.80;94.50;;;20.13;57.81;99480.75;5066600;28;20043;-75
2022/10/05 08:33:38;;;;;;;;;;;19.80;94.50;;;20.16;57.72;99471.84;5103468;28;20405;-75
2022/10/05 08:36:10;;;;;;;;;;;19.90;94.50;;;20.20;57.67;99476.69;5103559;28;19924;-75
2022/10/05 08:38:36;;;;;;;16.90;9.15;;;19.90;94.50;;;20.22;57.31;99475.25;5088140;28;19974;-75
2022/10/05 08:41:52;;;;;;;19.80;11.35;;;19.90;94.40;;;20.25;57.34;99487.56;5065847;28;20527;-75
2022/10/05 08:44:55;;;;;;;19.38;10.52;;;19.90;94.40;;;20.27;57.27;99488.06;5067960;28;20460;-75
2022/10/05 08:47:36;;;;;;;21.75;11.13;;;20.00;94.50;;;20.27;57.10;99486.13;5105608;27;20036;-75
2022/10/05 08:50:37;;;;;;;22.88;9.77;;;20.00;94.40;;;20.29;57.39;99486.63;5099265;28;20051;-75
2022/10/05 08:53:59;;;;;;;20.33;8.77;;;20.00;94.30;;;20.30;57.05;99492.94;5105186;27;20418;-75
2022/10/05 08:56:41;;;;;;;17.08;9.50;;;20.00;94.30;;;20.32;57.06;99485.97;5097495;28;20123;-74
2022/10/05 08:59:34;;;;;;;;;;;20.00;94.30;;;20.35;56.88;99468.81;5073084;28;20060;-74
2022/10/05 09:02:21;;;;;;;19.23;10.05;;;20.10;94.30;;;20.36;56.79;99469.63;5102399;28;20488;-74
2022/10/05 09:05:21;;;;;;;18.98;9.57;;;20.10;94.20;;;20.41;56.53;99483.25;5099565;28;20040;-74
2022/10/05 09:07:59;;;;;;;18.52;10.35;;;20.10;94.20;;;20.40;56.77;99476.09;5086067;28;20597;-75
2022/10/05 09:10:46;;;;;;;18.70;9.57;;;20.20;94.20;;;20.40;56.80;99481.59;5097121;28;20041;-75
2022/10/05 09:13:51;;;;;;;15.23;9.57;;;20.20;94.20;;;20.41;56.75;99486.00;5098470;28;20544;-74
2022/10/05 09:16:47;;;;;;;23.23;9.90;;;20.20;94.20;;;20.42;56.74;99490.34;5097332;28;20132;-75
2022/10/05 09:19:50;;;;;;;17.17;9.07;;;20.20;94.20;;;20.44;56.57;99499.13;5101334;28;20040;-75
2022/10/05 09:22:34;;;;;;;22.17;9.05;;;20.20;94.20;;;20.47;56.53;99497.66;5097663;28;20040;-75
2022/10/05 09:25:17;;;;;;;20.67;9.00;;;20.20;94.10;;;20.52;56.28;99487.28;5104252;28;20106;-75
2022/10/05 09:28:57;;;;;;;17.13;8.48;;;20.20;94.20;;;20.57;56.05;99484.41;5084205;28;20044;-75
2022/10/05 09:31:57;;;;;;;17.02;9.77;;;20.30;94.20;;;20.59;55.80;99478.56;5053310;28;20063;-75
2022/10/05 09:35:15;;;;;;;15.38;8.13;;;20.30;94.10;;;20.57;55.81;99476.13;5101484;28;20044;-74
2022/10/05 09:38:09;;;;;;;19.55;8.45;;;20.30;94.00;;;20.57;55.84;99478.88;5100860;28;20039;-75
2022/10/05 09:40:46;;;;;;;10.43;7.82;;;20.30;94.10;;;20.63;55.82;99478.72;5096951;28;20399;-75
2022/10/05 09:43:34;;;;;;;17.17;9.48;;;20.40;94.10;;;20.63;55.83;99482.28;5095396;28;20090;-75
2022/10/05 09:46:28;;;;;;;16.23;9.68;;;20.40;94.10;;;20.67;55.74;99486.03;5083311;28;20039;-75
2022/10/05 09:49:15;;;;;;;19.58;9.48;;;20.40;94.00;;;20.71;55.77;99491.69;5096861;28;20111;-74
2022/10/05 09:52:44;;;;;;;14.30;7.68;;;20.40;94.00;;;20.63;55.60;99484.25;5099143;28;20036;-74
2022/10/05 09:55:29;;;;;;;12.65;7.18;;;20.40;94.10;;;20.66;55.77;99478.91;5043744;28;20049;-74
2022/10/05 09:58:34;;;;;;;14.38;8.10;;;20.40;94.10;;;20.67;55.56;99479.72;5043952;28;20045;-75
2022/10/05 10:01:24;;;;;;;15.85;8.00;;;20.40;94.10;;;20.67;55.63;99479.72;5100073;28;20126;-75
2022/10/05 10:04:23;;;;;;;13.80;7.32;;;20.40;94.10;;;20.66;55.50;99476.16;5097567;28;20040;-75
2022/10/05 10:07:25;;;;;;;17.65;8.90;;;20.40;94.10;;;20.75;55.44;99481.66;5096874;28;20110;-75
2022/10/05 10:10:47;;;;;;;15.65;7.93;;;20.50;93.80;;;20.75;55.24;99479.69;5086432;28;20047;-75
2022/10/05 10:13:21;;;;;;;11.93;7.25;;;20.50;93.80;;;20.82;55.00;99484.75;5095025;28;20542;-75
2022/10/05 10:16:10;;;;;;;12.65;7.15;;;20.60;93.70;;;20.81;55.22;99480.34;5102228;28;20052;-75
2022/10/05 10:19:03;;;;;;;14.52;7.40;;;20.70;93.80;;;20.80;55.19;99471.25;5099519;28;20522;-75
2022/10/05 10:22:03;;;;;;;14.70;6.88;;;20.70;93.60;;;20.83;54.84;99467.03;5080764;28;20574;-75
2022/10/05 10:24:59;;;;;;;12.43;7.57;;;20.70;93.60;;;20.87;54.83;99462.50;5094788;28;20542;-75
2022/10/05 10:27:53;;;;;;;12.98;7.35;;;20.80;93.60;;;20.83;54.89;99457.97;5098488;28;20043;-75
2022/10/05 10:30:31;;;;;;;11.75;7.38;;;20.80;93.50;;;20.87;54.78;99454.25;5097415;28;20039;-75
2022/10/05 10:33:20;;;;;;;14.52;7.78;;;20.80;93.50;;;20.88;54.70;99458.59;5093272;27;20368;-75
2022/10/05 10:35:54;;;;;;;13.13;6.45;;;20.80;93.40;;;20.83;54.89;99458.78;5095331;28;20039;-75
2022/10/05 10:38:39;;;;;;;12.63;6.55;;;20.90;93.40;;;20.87;54.83;99467.22;5100875;28;20494;-75
2022/10/05 10:41:28;;;;;;;11.02;6.78;;;20.90;93.30;;;20.84;54.63;99463.16;5071111;28;20044;-75
2022/10/05 10:44:31;;;;;;;12.50;7.28;;;20.90;93.20;;;20.87;54.67;99478.25;5099802;28;20100;-75
2022/10/05 10:47:25;;;;;;;11.23;6.88;;;21.00;93.20;;;20.87;54.86;99470.78;5096427;28;20118;-75
2022/10/05 10:50:15;;;;;;;11.77;7.45;;;21.00;93.20;;;20.92;54.61;99470.63;5094850;28;20043;-75
2022/10/05 10:53:04;;;;;;;12.75;6.35;;;21.00;93.20;;;20.92;54.58;99476.13;5100632;28;20092;-75
2022/10/05 10:55:45;;;;;;;11.60;7.10;;;21.00;93.10;;;20.88;54.66;99471.59;5096086;28;20047;-75
2022/10/05 10:58:52;;;;;;;8.65;6.38;;;21.10;93.20;;;20.92;54.77;99469.81;5087297;28;20095;-75
2022/10/05 11:01:56;;;;;;;12.50;7.28;;;21.00;93.10;;;20.89;54.74;99456.66;5097926;28;20044;-75
2022/10/05 11:05:02;;;;;;;11.10;7.22;;;21.10;93.20;;;20.93;54.57;99463.16;5081628;28;20048;-74
2022/10/05 11:08:04;;;;;;;8.25;5.90;;;21.00;93.20;;;20.93;54.54;99469.47;5076231;28;20549;-74
2022/10/05 11:10:57;;;;;;;8.18;6.07;;;21.10;93.20;;;20.90;54.50;99464.63;5097114;28;20621;-75
2022/10/05 11:13:45;;;;;;;8.77;6.65;;;21.10;93.20;;;20.93;54.68;99472.22;5082110;28;20507;-75
2022/10/05 11:16:25;;;;;;;11.00;7.35;;;21.10;93.10;;;20.96;54.61;99471.59;5099693;28;20558;-75
2022/10/05 11:19:20;;;;;;;10.00;5.15;;;21.10;93.10;;;20.97;54.55;99461.38;5068482;28;20069;-75
2022/10/05 11:21:52;;;;;;;9.23;5.65;;;21.10;93.10;;;20.97;54.41;99462.19;5098027;28;20092;-75
2022/10/05 11:24:47;;;;;;;;;;;21.10;93.10;;;21.00;54.51;99461.50;5095704;28;20480;-75
2022/10/05 11:27:39;;;;;;;8.70;4.97;;;21.20;93.20;;;20.99;54.40;99450.81;5099976;28;19983;-75
2022/10/05 11:30:36;;;;;;;12.98;6.32;;;21.20;93.20;;;21.03;54.57;99449.81;5100395;28;20549;-75
2022/10/05 11:33:52;;;;;;;9.43;5.80;;;21.30;93.10;;;21.03;54.27;99452.59;5097331;28;20043;-75
2022/10/05 11:36:52;;;;;;;11.05;5.97;;;21.30;93.10;;;21.06;54.22;99448.34;5095592;28;20123;-75
2022/10/05 11:39:32;;;;;;;10.07;6.47;;;21.30;93.00;;;21.06;54.46;99450.31;5096775;28;20040;-75
2022/10/05 11:42:28;;;;;;;10.35;5.50;;;21.30;93.00;;;21.08;54.23;99454.38;5098830;28;20070;-75
2022/10/05 11:45:23;;;;;;;8.90;5.50;;;21.30;92.90;;;21.10;54.21;99451.28;5097535;28;20118;-74